createdAt,value
2018-12-17T00:01:15.359Z,47.77
2018-12-17T00:03:43.650Z,48.73
2018-12-17T00:06:12.483Z,48.00
2018-12-17T00:08:41.301Z,51.53
2018-12-17T00:11:09.493Z,48.90
2018-12-17T00:13:37.661Z,49.63
2018-12-17T00:16:05.840Z,49.03
2018-12-17T00:18:33.970Z,47.87
2018-12-17T00:21:02.145Z,53.27
2018-12-17T00:23:30.280Z,49.17
2018-12-17T00:25:58.399Z,49.60
2018-12-17T00:28:26.555Z,50.23
2018-12-17T00:30:54.683Z,49.13
2018-12-17T00:33:22.802Z,48.77
2018-12-17T00:35:50.934Z,47.67
2018-12-17T00:38:19.045Z,50.70
2018-12-17T00:40:47.782Z,48.87
2018-12-17T00:43:15.893Z,50.67
2018-12-17T00:45:45.094Z,47.43
2018-12-17T00:48:13.248Z,50.70
2018-12-17T00:50:41.366Z,49.17
2018-12-17T00:53:09.511Z,48.10
2018-12-17T00:55:38.351Z,48.43
2018-12-17T00:58:06.465Z,47.27
2018-12-17T01:00:34.578Z,48.03
2018-12-17T01:03:02.738Z,47.77
2018-12-17T01:05:30.844Z,53.17
2018-12-17T01:07:59.062Z,50.03
2018-12-17T01:10:27.206Z,52.70
2018-12-17T01:12:55.329Z,51.23
2018-12-17T01:15:23.439Z,50.43
2018-12-17T01:17:51.639Z,50.33
2018-12-17T01:20:23.503Z,52.47
2018-12-17T01:22:51.619Z,50.17
2018-12-17T01:25:19.809Z,50.43
2018-12-17T01:27:47.933Z,49.20
2018-12-17T01:30:16.038Z,51.37
2018-12-17T01:32:44.471Z,53.03
2018-12-17T01:35:12.595Z,48.30
2018-12-17T01:37:40.715Z,48.83
2018-12-17T01:40:08.842Z,50.20
2018-12-17T01:42:36.964Z,51.87
2018-12-17T01:45:06.324Z,51.90
2018-12-17T01:47:34.446Z,53.60
2018-12-17T01:50:02.568Z,51.83
2018-12-17T01:52:30.721Z,52.67
2018-12-17T01:54:59.112Z,53.27
2018-12-17T01:57:27.207Z,51.83
2018-12-17T01:59:55.572Z,49.47
2018-12-17T02:02:24.060Z,50.90
2018-12-17T02:04:52.173Z,50.20
2018-12-17T02:07:20.316Z,50.63
2018-12-17T02:09:48.885Z,50.47
2018-12-17T02:12:16.997Z,50.57
2018-12-17T02:14:45.185Z,49.43
2018-12-17T02:17:13.399Z,50.93
2018-12-17T02:19:41.543Z,50.07
2018-12-17T02:22:09.651Z,53.20
2018-12-17T02:24:37.800Z,51.87
2018-12-17T02:27:05.920Z,53.13
2018-12-17T02:29:34.046Z,49.20
2018-12-17T02:32:02.950Z,51.27
2018-12-17T02:34:31.070Z,52.80
2018-12-17T02:36:59.183Z,49.83
2018-12-17T02:39:27.427Z,51.67
2018-12-17T02:41:55.522Z,52.63
2018-12-17T02:44:23.657Z,47.93
2018-12-17T02:46:53.162Z,50.97
2018-12-17T02:49:22.350Z,50.07
2018-12-17T02:51:50.473Z,48.90
2018-12-17T02:54:18.652Z,49.67
2018-12-17T02:56:46.772Z,50.83
2018-12-17T02:59:14.899Z,51.37
2018-12-17T03:01:43.500Z,52.53
2018-12-17T03:04:11.625Z,48.97
2018-12-17T03:06:39.737Z,51.47
2018-12-17T03:09:07.870Z,49.17
2018-12-17T03:11:35.973Z,51.93
2018-12-17T03:14:04.150Z,52.10
2018-12-17T03:16:32.287Z,49.17
2018-12-17T03:19:00.503Z,50.93
2018-12-17T03:21:28.641Z,51.73
2018-12-17T03:23:56.752Z,48.57
2018-12-17T03:26:24.895Z,51.90
2018-12-17T03:29:05.991Z,49.13
2018-12-17T03:31:34.495Z,48.80
2018-12-17T03:34:02.609Z,49.23
2018-12-17T03:36:30.719Z,50.73
2018-12-17T03:38:59.312Z,55.73
2018-12-17T03:41:27.496Z,49.50
2018-12-17T03:43:55.688Z,52.73
2018-12-17T03:46:23.831Z,52.90
2018-12-17T03:48:51.986Z,51.70
2018-12-17T03:51:20.113Z,52.30
2018-12-17T03:53:48.263Z,51.50
2018-12-17T03:56:16.373Z,51.20
2018-12-17T03:58:44.538Z,51.77
2018-12-17T04:01:12.659Z,52.37
2018-12-17T04:03:40.776Z,50.13
2018-12-17T04:06:08.924Z,53.63
2018-12-17T04:08:37.069Z,51.13
2018-12-17T04:11:05.213Z,52.03
2018-12-17T04:13:35.334Z,50.30
2018-12-17T04:16:05.424Z,50.10
2018-12-17T04:18:36.515Z,52.00
2018-12-17T04:21:06.593Z,49.43
2018-12-17T04:23:36.715Z,50.50
2018-12-17T04:26:06.241Z,50.87
2018-12-17T04:28:34.352Z,51.87
2018-12-17T04:31:03.300Z,48.37
2018-12-17T04:33:31.413Z,51.43
2018-12-17T04:35:59.531Z,49.90
2018-12-17T04:38:27.710Z,52.53
2018-12-17T04:40:55.832Z,50.37
2018-12-17T04:43:23.954Z,51.83
2018-12-17T04:45:52.296Z,52.73
2018-12-17T04:48:20.412Z,51.97
2018-12-17T04:50:48.535Z,50.27
2018-12-17T04:53:16.693Z,53.77
2018-12-17T04:55:44.874Z,53.47
2018-12-17T04:58:12.998Z,50.77
2018-12-17T05:00:41.140Z,51.03
2018-12-17T05:03:09.297Z,51.87
2018-12-17T05:05:37.708Z,52.03
2018-12-17T05:08:05.843Z,53.47
2018-12-17T05:10:33.979Z,49.80
2018-12-17T05:13:02.138Z,54.93
2018-12-17T05:15:30.325Z,54.47
2018-12-17T05:17:58.491Z,52.27
2018-12-17T05:20:26.610Z,49.27
2018-12-17T05:22:54.739Z,53.50
2018-12-17T05:25:22.882Z,52.57
2018-12-17T05:27:50.996Z,51.73
2018-12-17T05:30:19.217Z,50.53
2018-12-17T05:32:47.346Z,52.50
2018-12-17T05:35:15.743Z,54.30
2018-12-17T05:37:43.932Z,51.13
2018-12-17T05:40:12.056Z,50.67
2018-12-17T05:42:40.507Z,52.03
2018-12-17T05:45:08.624Z,51.30
2018-12-17T05:47:36.741Z,51.80
2018-12-17T05:50:05.564Z,52.90
2018-12-17T05:52:33.703Z,52.33
2018-12-17T05:55:01.899Z,53.17
2018-12-17T05:57:30.026Z,52.37
2018-12-17T05:59:58.340Z,54.87
2018-12-17T06:02:26.464Z,53.03
2018-12-17T06:04:54.573Z,51.93
2018-12-17T06:07:22.764Z,52.67
2018-12-17T06:09:50.875Z,53.77
2018-12-17T06:12:18.991Z,53.60
2018-12-17T06:14:47.245Z,52.10
2018-12-17T06:17:15.340Z,53.10
2018-12-17T06:19:43.470Z,50.60
2018-12-17T06:22:11.616Z,54.80
2018-12-17T06:24:39.731Z,52.73
2018-12-17T06:27:07.865Z,52.93
2018-12-17T06:29:36.015Z,51.63
2018-12-17T06:32:04.131Z,54.03
2018-12-17T06:34:32.245Z,53.10
2018-12-17T06:37:00.461Z,58.40
2018-12-17T06:39:28.577Z,54.27
2018-12-17T06:41:56.716Z,52.87
2018-12-17T06:44:24.866Z,51.30
2018-12-17T06:46:52.995Z,50.63
2018-12-17T06:49:21.121Z,52.13
2018-12-17T06:51:49.912Z,51.40
2018-12-17T06:54:18.194Z,52.73
2018-12-17T06:56:46.325Z,54.13
2018-12-17T06:59:14.471Z,51.80
2018-12-17T07:01:48.320Z,53.73
2018-12-17T07:04:19.046Z,51.47
2018-12-17T07:06:47.181Z,50.93
2018-12-17T07:09:15.329Z,50.17
2018-12-17T07:11:43.451Z,53.65
2018-12-17T07:14:11.576Z,51.42
2018-12-17T07:16:39.693Z,49.33
2018-12-17T07:19:07.842Z,49.70
2018-12-17T07:21:35.963Z,52.80
2018-12-17T07:24:04.094Z,50.67
2018-12-17T07:26:32.258Z,49.63
2018-12-17T07:29:00.466Z,51.13
2018-12-17T07:31:28.591Z,49.60
2018-12-17T07:33:56.737Z,49.90
2018-12-17T07:36:24.887Z,51.53
2018-12-17T07:38:53.081Z,50.13
2018-12-17T07:41:21.225Z,51.90
2018-12-17T07:43:49.754Z,52.77
2018-12-17T07:46:17.898Z,53.30
2018-12-17T07:48:46.188Z,51.73
2018-12-17T07:51:14.358Z,52.40
2018-12-17T07:53:42.749Z,50.40
2018-12-17T07:56:10.849Z,52.63
2018-12-17T07:58:38.989Z,51.97
2018-12-17T08:01:07.106Z,48.77
2018-12-17T08:03:37.010Z,51.07
2018-12-17T08:06:05.138Z,54.00
2018-12-17T08:08:35.480Z,49.57
2018-12-17T08:11:03.370Z,49.60
2018-12-17T08:13:31.784Z,54.50
2018-12-17T08:15:59.959Z,49.77
2018-12-17T08:18:28.098Z,50.83
2018-12-17T08:20:56.250Z,53.90
2018-12-17T08:23:24.361Z,51.90
2018-12-17T08:25:52.491Z,51.47
2018-12-17T08:28:20.681Z,50.90
2018-12-17T08:30:48.859Z,52.30
2018-12-17T08:33:17.394Z,51.33
2018-12-17T08:35:45.665Z,52.53
2018-12-17T08:38:13.798Z,50.17
2018-12-17T08:40:41.915Z,52.80
2018-12-17T08:43:10.044Z,51.00
2018-12-17T08:45:38.735Z,53.83
2018-12-17T08:48:06.849Z,51.63
2018-12-17T08:50:34.996Z,51.00
2018-12-17T08:53:03.137Z,53.20
2018-12-17T08:55:31.289Z,49.23
2018-12-17T08:57:59.405Z,48.30
2018-12-17T09:00:27.549Z,51.97
2018-12-17T09:02:55.928Z,51.63
2018-12-17T09:05:24.643Z,50.63
2018-12-17T09:07:52.753Z,48.80
2018-12-17T09:10:20.896Z,47.87
2018-12-17T09:12:49.066Z,51.93
2018-12-17T09:15:17.176Z,47.83
2018-12-17T09:17:45.319Z,52.93
2018-12-17T09:20:14.434Z,49.90
2018-12-17T09:22:42.585Z,49.40
2018-12-17T09:25:10.702Z,52.63
2018-12-17T09:27:38.878Z,51.63
2018-12-17T09:30:07.563Z,48.13
2018-12-17T09:32:35.685Z,48.47
2018-12-17T09:35:03.846Z,49.90
2018-12-17T09:37:31.962Z,52.20
2018-12-17T09:40:01.358Z,49.87
2018-12-17T09:42:29.513Z,49.60
2018-12-17T09:44:57.639Z,50.50
2018-12-17T09:47:25.753Z,47.47
2018-12-17T09:49:53.902Z,49.63
2018-12-17T09:52:22.020Z,50.30
2018-12-17T09:54:50.219Z,48.57
2018-12-17T09:57:18.366Z,51.20
2018-12-17T09:59:46.514Z,49.53
2018-12-17T10:02:14.631Z,52.67
2018-12-17T10:04:43.168Z,51.57
2018-12-17T10:07:11.293Z,48.97
2018-12-17T10:09:39.447Z,50.80
2018-12-17T10:12:07.594Z,51.20
2018-12-17T10:14:35.715Z,51.97
2018-12-17T10:17:03.857Z,51.47
2018-12-17T10:19:32.010Z,51.80
2018-12-17T10:22:00.231Z,51.20
2018-12-17T10:24:28.363Z,49.30
2018-12-17T10:26:56.493Z,48.73
2018-12-17T10:29:24.653Z,52.70
2018-12-17T10:31:52.774Z,48.20
2018-12-17T10:34:20.912Z,49.07
2018-12-17T10:36:49.057Z,51.77
2018-12-17T10:39:17.176Z,50.80
2018-12-17T10:41:45.518Z,49.87
2018-12-17T10:44:13.617Z,52.40
2018-12-17T10:46:41.761Z,51.00
2018-12-17T10:49:09.883Z,45.60
2018-12-17T10:51:38.002Z,50.73
2018-12-17T10:54:06.144Z,50.57
2018-12-17T10:56:35.279Z,51.37
2018-12-17T10:59:03.399Z,51.77
2018-12-17T11:01:37.251Z,47.53
2018-12-17T11:04:07.362Z,52.47
2018-12-17T11:06:35.775Z,47.60
2018-12-17T11:09:07.766Z,50.00
2018-12-17T11:11:36.094Z,49.37
2018-12-17T11:14:04.229Z,52.93
2018-12-17T11:16:32.351Z,49.30
2018-12-17T11:19:00.494Z,50.23
2018-12-17T11:21:28.647Z,46.20
2018-12-17T11:23:56.778Z,51.67
2018-12-17T11:26:24.944Z,51.40
2018-12-17T11:28:53.124Z,49.07
2018-12-17T11:31:21.254Z,48.07
2018-12-17T11:33:49.599Z,48.30
2018-12-17T11:36:18.626Z,44.97
2018-12-17T11:38:46.753Z,49.43
2018-12-17T11:41:14.868Z,46.80
2018-12-17T11:43:44.041Z,46.97
2018-12-17T11:46:13.132Z,50.00
2018-12-17T11:48:42.423Z,48.30
2018-12-17T11:51:10.544Z,46.77
2018-12-17T11:53:39.290Z,46.50
2018-12-17T11:56:07.417Z,46.90
2018-12-17T11:58:35.541Z,49.73
2018-12-17T12:01:04.270Z,47.97
2018-12-17T12:03:32.865Z,46.33
2018-12-17T12:06:01.000Z,45.03
2018-12-17T12:08:29.161Z,45.57
2018-12-17T12:10:57.276Z,44.50
2018-12-17T12:13:25.397Z,45.03
2018-12-17T12:15:53.543Z,45.47
2018-12-17T12:18:21.688Z,46.27
2018-12-17T12:20:49.836Z,47.03
2018-12-17T12:23:18.885Z,48.03
2018-12-17T12:25:47.140Z,44.87
2018-12-17T12:28:15.324Z,46.63
2018-12-17T12:30:43.456Z,42.23
2018-12-17T12:33:12.582Z,48.50
2018-12-17T12:35:40.850Z,45.73
2018-12-17T12:38:08.943Z,45.00
2018-12-17T12:40:37.070Z,45.87
2018-12-17T12:43:05.185Z,46.13
2018-12-17T12:45:33.337Z,47.03
2018-12-17T12:48:01.477Z,44.73
2018-12-17T12:50:30.488Z,40.40
2018-12-17T12:52:58.634Z,45.83
2018-12-17T12:55:26.788Z,43.10
2018-12-17T12:57:55.004Z,45.80
2018-12-17T13:00:23.152Z,44.93
2018-12-17T13:02:51.270Z,45.00
2018-12-17T13:05:19.655Z,43.97
2018-12-17T13:07:47.791Z,44.10
2018-12-17T13:10:15.918Z,42.47
2018-12-17T13:12:44.045Z,42.90
2018-12-17T13:15:12.175Z,42.73
2018-12-17T13:17:40.323Z,40.67
2018-12-17T13:20:08.437Z,43.30
2018-12-17T13:22:36.595Z,42.03
2018-12-17T13:25:06.207Z,45.80
2018-12-17T13:27:34.320Z,43.13
2018-12-17T13:30:02.466Z,39.70
2018-12-17T13:32:30.588Z,42.20
2018-12-17T13:34:58.706Z,42.87
2018-12-17T13:37:27.056Z,38.33
2018-12-17T13:39:55.164Z,39.90
2018-12-17T13:42:24.375Z,42.27
2018-12-17T13:44:53.051Z,42.27
2018-12-17T13:47:21.173Z,38.50
2018-12-17T13:49:49.326Z,42.83
2018-12-17T13:52:23.192Z,39.90
2018-12-17T13:54:51.325Z,41.80
2018-12-17T13:57:19.427Z,40.20
2018-12-17T13:59:47.578Z,37.90
2018-12-17T14:02:15.710Z,41.03
2018-12-17T14:04:43.938Z,42.83
2018-12-17T14:07:12.143Z,39.00
2018-12-17T14:12:39.747Z,40.77
2018-12-17T14:15:07.881Z,40.87
2018-12-17T14:17:36.886Z,40.73
2018-12-17T14:20:13.182Z,39.43
2018-12-17T14:22:41.318Z,40.20
2018-12-17T14:25:09.446Z,41.97
2018-12-17T14:27:37.560Z,38.03
2018-12-17T14:30:07.941Z,40.70
2018-12-17T14:32:36.069Z,40.73
2018-12-17T14:35:04.297Z,40.73
2018-12-17T14:37:33.085Z,41.07
2018-12-17T14:40:01.202Z,39.93
2018-12-17T14:42:29.414Z,40.63
2018-12-17T14:44:58.126Z,41.73
2018-12-17T14:47:26.246Z,41.53
2018-12-17T14:49:54.470Z,40.80
2018-12-17T14:52:22.592Z,41.17
2018-12-17T14:54:50.706Z,38.50
2018-12-17T14:57:18.829Z,43.50
2018-12-17T14:59:47.039Z,40.20
2018-12-17T15:02:15.167Z,38.50
2018-12-17T15:04:43.309Z,39.30
2018-12-17T15:07:11.437Z,41.77
2018-12-17T15:09:39.586Z,40.67
2018-12-17T15:12:07.846Z,43.07
2018-12-17T15:14:35.976Z,38.80
2018-12-17T15:17:04.098Z,37.93
2018-12-17T15:19:32.247Z,38.70
2018-12-17T15:22:00.462Z,39.57
2018-12-17T15:24:28.651Z,40.50
2018-12-17T15:26:56.876Z,40.77
2018-12-17T15:29:25.030Z,38.97
2018-12-17T15:31:53.152Z,40.23
2018-12-17T15:34:21.306Z,41.67
2018-12-17T15:36:49.521Z,41.70
2018-12-17T15:39:18.225Z,41.73
2018-12-17T15:41:46.339Z,38.57
2018-12-17T15:44:14.452Z,38.67
2018-12-17T15:46:42.608Z,38.70
2018-12-17T15:49:10.816Z,38.10
2018-12-17T15:51:38.930Z,38.80
2018-12-17T15:54:07.366Z,40.50
2018-12-17T15:56:35.470Z,41.00
2018-12-17T15:59:03.758Z,50.60
2018-12-17T16:01:32.085Z,118.67
2018-12-17T16:04:00.355Z,137.50
2018-12-17T16:08:11.255Z,117.20
2018-12-17T16:10:39.890Z,110.07
2018-12-17T16:13:08.043Z,109.23
2018-12-17T16:15:36.989Z,106.33
2018-12-17T16:18:05.129Z,104.00
2018-12-17T16:20:33.333Z,100.07
2018-12-17T16:23:01.500Z,98.87
2018-12-17T16:25:29.740Z,102.43
2018-12-17T16:27:57.925Z,93.00
2018-12-17T16:30:26.056Z,98.73
2018-12-17T16:32:54.174Z,92.53
2018-12-17T16:35:22.337Z,89.57
2018-12-17T16:37:50.458Z,90.17
2018-12-17T16:40:19.594Z,88.37
2018-12-17T16:42:48.595Z,91.07
2018-12-17T16:45:16.750Z,88.43
2018-12-17T16:47:44.866Z,87.07
2018-12-17T16:50:13.030Z,83.53
2018-12-17T16:52:41.171Z,87.80
2018-12-17T16:57:28.810Z,91.43
2018-12-17T16:59:56.927Z,142.00
2018-12-17T17:02:25.132Z,234.43
2018-12-17T17:04:53.291Z,200.50
2018-12-17T17:07:21.411Z,152.40
2018-12-17T17:09:49.580Z,133.60
2018-12-17T17:12:17.702Z,123.37
2018-12-17T17:14:45.930Z,110.67
2018-12-17T17:17:14.099Z,110.77
2018-12-17T17:19:42.780Z,112.67
2018-12-17T17:22:10.910Z,109.57
2018-12-17T17:24:39.070Z,110.07
2018-12-17T17:27:07.219Z,104.97
2018-12-17T17:29:36.239Z,103.37
2018-12-17T17:32:11.439Z,103.17
2018-12-17T17:34:34.558Z,98.03
2018-12-17T17:37:02.705Z,101.40
2018-12-17T17:39:30.867Z,99.03
2018-12-17T17:41:59.047Z,93.93
2018-12-17T17:44:27.226Z,96.20
2018-12-17T17:46:55.365Z,97.03
2018-12-17T17:49:23.504Z,101.40
2018-12-17T17:51:51.705Z,96.50
2018-12-17T17:54:19.854Z,95.77
2018-12-17T17:56:48.363Z,94.23
2018-12-17T17:59:16.536Z,94.03
2018-12-17T18:01:44.656Z,90.37
2018-12-17T18:04:12.921Z,97.70
2018-12-17T18:06:41.074Z,93.47
2018-12-17T18:09:09.571Z,91.93
2018-12-17T18:11:37.772Z,89.67
2018-12-17T18:14:05.954Z,90.60
2018-12-17T18:16:34.123Z,89.03
2018-12-17T18:19:02.298Z,90.27
2018-12-17T18:21:30.578Z,87.80
2018-12-17T18:23:58.743Z,83.27
2018-12-17T18:26:26.900Z,88.73
2018-12-17T18:28:55.330Z,82.83
2018-12-17T18:31:23.531Z,90.47
2018-12-17T18:33:51.697Z,83.90
2018-12-17T18:36:19.826Z,84.03
2018-12-17T18:38:48.710Z,85.23
2018-12-17T18:41:16.832Z,85.87
2018-12-17T18:43:44.991Z,86.83
2018-12-17T18:46:16.568Z,86.00
2018-12-17T18:48:44.742Z,81.63
2018-12-17T18:51:12.874Z,82.00
2018-12-17T18:53:41.031Z,83.90
2018-12-17T18:56:09.456Z,75.57
2018-12-17T18:58:37.800Z,80.97
2018-12-17T19:01:05.919Z,79.80
2018-12-17T19:03:34.037Z,79.40
2018-12-17T19:06:02.205Z,77.13
2018-12-17T19:08:30.360Z,72.17
2018-12-17T19:10:58.627Z,73.37
2018-12-17T19:13:35.879Z,77.10
2018-12-17T19:16:04.029Z,71.10
2018-12-17T19:18:32.171Z,76.73
2018-12-17T19:21:00.366Z,75.27
2018-12-17T19:23:34.675Z,72.90
2018-12-17T19:27:22.643Z,70.17
2018-12-17T19:29:50.835Z,68.25
2018-12-17T19:32:18.971Z,73.72
2018-12-17T19:34:47.112Z,68.33
2018-12-17T19:37:15.277Z,67.50
2018-12-17T19:39:44.078Z,68.33
2018-12-17T19:42:12.221Z,65.12
2018-12-17T19:44:40.346Z,68.92
2018-12-17T19:47:08.528Z,66.57
2018-12-17T19:49:36.682Z,70.55
2018-12-17T19:52:05.019Z,67.20
2018-12-17T19:54:33.781Z,69.07
2018-12-17T19:57:01.936Z,68.57
2018-12-17T19:59:30.271Z,71.50
2018-12-17T20:01:58.481Z,69.37
2018-12-17T20:04:26.657Z,68.28
2018-12-17T20:06:54.894Z,65.12
2018-12-17T20:09:23.047Z,63.85
2018-12-17T20:11:51.389Z,62.88
2018-12-17T20:14:20.043Z,61.80
2018-12-17T20:16:48.220Z,66.17
2018-12-17T20:19:16.359Z,66.87
2018-12-17T20:21:45.318Z,64.03
2018-12-17T20:24:13.683Z,64.43
2018-12-17T20:26:42.465Z,61.27
2018-12-17T20:29:10.706Z,61.50
2018-12-17T20:31:38.906Z,59.93
2018-12-17T20:34:07.044Z,62.73
2018-12-17T20:36:35.282Z,65.00
2018-12-17T20:39:04.409Z,60.73
2018-12-17T20:41:32.583Z,63.63
2018-12-17T20:44:00.840Z,59.67
2018-12-17T20:46:28.988Z,61.37
2018-12-17T20:48:57.233Z,63.83
2018-12-17T20:51:25.343Z,60.20
2018-12-17T20:53:54.161Z,59.30
2018-12-17T20:56:22.287Z,58.93
2018-12-17T20:58:50.455Z,62.13
2018-12-17T21:01:18.591Z,62.03
2018-12-17T21:03:46.754Z,59.53
2018-12-17T21:06:14.877Z,58.23
2018-12-17T21:08:43.026Z,59.20
2018-12-17T21:11:11.134Z,57.90
2018-12-17T21:13:39.266Z,57.07
2018-12-17T21:16:07.428Z,58.23
2018-12-17T21:18:35.566Z,58.67
2018-12-17T21:21:03.700Z,57.17
2018-12-17T21:23:32.405Z,58.20
2018-12-17T21:26:00.623Z,60.03
2018-12-17T21:28:28.760Z,59.50
2018-12-17T21:30:56.894Z,58.37
2018-12-17T21:33:25.513Z,55.10
2018-12-17T21:35:53.737Z,55.30
2018-12-17T21:38:21.865Z,57.17
2018-12-17T21:40:50.019Z,56.53
2018-12-17T21:43:18.141Z,60.50
2018-12-17T21:45:46.265Z,54.93
2018-12-17T21:48:14.479Z,60.57
2018-12-17T21:50:42.632Z,54.73
2018-12-17T21:53:10.752Z,56.73
2018-12-17T21:55:38.909Z,54.67
2018-12-17T21:58:07.017Z,55.93
2018-12-17T22:00:35.133Z,59.07
2018-12-17T22:03:03.306Z,52.53
2018-12-17T22:05:31.421Z,59.33
2018-12-17T22:08:00.247Z,55.00
2018-12-17T22:10:30.357Z,57.40
2018-12-17T22:12:58.496Z,54.23
2018-12-17T22:15:26.654Z,52.97
2018-12-17T22:17:54.775Z,53.57
2018-12-17T22:20:22.894Z,52.27
2018-12-17T22:22:51.050Z,51.17
2018-12-17T22:25:19.389Z,55.27
2018-12-17T22:27:48.072Z,51.63
2018-12-17T22:30:16.198Z,49.67
2018-12-17T22:32:44.318Z,51.40
2018-12-17T22:35:12.471Z,51.90
2018-12-17T22:37:40.846Z,50.53
2018-12-17T22:40:08.994Z,53.30
2018-12-17T22:42:37.152Z,51.60
2018-12-17T22:45:05.341Z,49.27
2018-12-17T22:47:33.457Z,47.83
2018-12-17T22:50:01.698Z,53.03
2018-12-17T22:52:29.815Z,50.23
2018-12-17T22:54:57.940Z,50.80
2018-12-17T22:57:27.436Z,53.03
2018-12-17T22:59:55.551Z,50.03
2018-12-17T23:02:23.673Z,49.77
2018-12-17T23:04:51.885Z,50.77
2018-12-17T23:07:20.039Z,50.10
2018-12-17T23:10:00.066Z,49.30
2018-12-17T23:12:39.892Z,51.50
2018-12-17T23:15:19.834Z,50.17
2018-12-17T23:17:47.572Z,47.83
2018-12-17T23:20:16.943Z,50.80
2018-12-17T23:22:45.087Z,50.13
2018-12-17T23:25:13.220Z,50.53
2018-12-17T23:27:47.750Z,53.90
2018-12-17T23:30:15.894Z,47.93
2018-12-17T23:32:44.019Z,47.07
2018-12-17T23:35:12.168Z,48.10
2018-12-17T23:37:40.290Z,46.43
2018-12-17T23:40:08.443Z,49.10
2018-12-17T23:42:36.589Z,50.83
2018-12-17T23:46:42.772Z,44.77
2018-12-17T23:50:15.390Z,46.57
2018-12-17T23:55:21.469Z,45.60
2018-12-17T23:57:50.365Z,46.90
